Aéroport Valenciennes-Denain

LFAV · North, Hauts-de-France, 法国

罗盘
风向 的 风向 320° Valenciennes-Denain Airport 11/29
风: 3 kt, 1 beaufort

3 kt

2 kt
改变
0 1.000 2.000 3.000 4.000 5.000
OVC 400 ft
METAR LFQQ 051500Z AUTO 32003KT 2700 BR OVC004 04/04 Q1020 TEMPO DZ

METAR Valenciennes-Denain Airport - LFAV

Valenciennes-Denain Airport是,法国中的中型机场。 该机场有2条跑道: 11/29 和 6/24. 该领域的国际民航组织标志是LFAV.

这份报告是针对2022年12月5日 16:00, 当地时间在Lille-Lesquin Airport进行的。

机场观察

风向为320°,速度为3 kt。

可见度为2,7 km。

有乌云密布在400 ft的高度。 破损或更高的上限为400 ft。

当前天气为薄雾。 温度为4 °C,阵风为1 °C。 露点为4 °C,相对湿度为100%。 海平面上的气压为1020 hPa (QNH)。

发展趋势

  • 暂时的

    可变方向的风很小或没有。 重大天气:细雨。

白天

今天,太阳从08:29升起,在16:44降落。 这适用于Valenciennes-Denain Airport,世界夏令时可能有所不同。 当地时间与世界标准时间之间的时差为+1 小时。 当前,没有夏令时有效。

公司介绍

在这个机场,你可以找到飞行俱乐部。 这个机场上的公司有Takeoff Aviation Club & School 和 Aéroclub Valenciennes Hainaut。

体会

到Vliegles.nl去找飞行课程,跳伞和其他飞行体验。 浏览页面,了解Valenciennes-Denain Airport附近所有可用的活动。 你也可以使用搜索功能来寻找你所在地附近的特定飞行课程、跳伞或其他飞行体验。

跑道

Id 标题 侧风 逆风 侧风 %
11/29 110°-290° 2 kt 3 kt 50 %
6/24 062°-242° 3 kt 98 %

逆风成分最大的方向会被突出显示,并用于横风计算。 这并不一定意味着这个方向在使用。

乌云

400 ft OVC 乌云密布

温度 & 天气

天气 薄雾
温度 4 °C
露点 4 °C
相对湿度 100%
风寒 1 °C
Kp-index 0 (0-9)

白天

日出
08:31
中午
12:38
日落
16:44 (10m)

小工具

你想在你的网站上有一个关于Valenciennes-Denain Airport的当前航空天气(METAR)的小部件吗?

显示HTML代码

我们和第三方通过cookies跟踪您在我们网站上的互联网行为。如果你继续,我们认为你同意我们的饼干政策